createdAt,value
2022-12-19T00:01:16.718Z,9.30
2022-12-19T00:03:50.915Z,9.98
2022-12-19T00:06:18.632Z,9.80
2022-12-19T00:08:46.533Z,7.75
2022-12-19T00:11:15.201Z,7.85
2022-12-19T00:13:42.874Z,9.55
2022-12-19T00:16:18.923Z,12.68
2022-12-19T00:18:47.301Z,8.93
2022-12-19T00:21:19.492Z,10.15
2022-12-19T00:23:46.931Z,11.15
2022-12-19T00:26:22.206Z,8.43
2022-12-19T00:28:52.196Z,6.88
2022-12-19T00:31:20.560Z,7.15
2022-12-19T00:33:48.014Z,6.45
2022-12-19T00:36:20.139Z,8.82
2022-12-19T00:38:51.392Z,10.00
2022-12-19T00:41:27.597Z,8.50
2022-12-19T00:44:02.453Z,10.43
2022-12-19T00:46:30.919Z,8.52
2022-12-19T00:48:57.817Z,7.70
2022-12-19T00:51:26.840Z,6.78
2022-12-19T00:53:55.128Z,8.77
2022-12-19T00:56:24.262Z,6.45
2022-12-19T00:58:51.101Z,6.63
2022-12-19T01:01:20.195Z,10.10
2022-12-19T01:04:18.682Z,11.07
2022-12-19T01:06:33.936Z,10.48
2022-12-19T01:09:01.007Z,10.32
2022-12-19T01:11:46.166Z,6.80
2022-12-19T01:14:19.002Z,11.38
2022-12-19T01:16:47.601Z,9.35
2022-12-19T01:19:14.217Z,11.18
2022-12-19T01:21:40.870Z,9.82
2022-12-19T01:24:10.983Z,14.18
2022-12-19T01:26:37.630Z,10.57
2022-12-19T01:29:05.104Z,7.28
2022-12-19T01:31:33.456Z,4.93
2022-12-19T01:34:01.299Z,6.80
2022-12-19T01:36:28.292Z,8.27
2022-12-19T01:38:58.206Z,9.73
2022-12-19T01:41:25.284Z,7.80
2022-12-19T01:44:03.582Z,10.95
2022-12-19T01:46:36.640Z,12.35
2022-12-19T01:49:05.002Z,12.95
2022-12-19T01:51:39.304Z,12.93
2022-12-19T01:54:08.993Z,10.77
2022-12-19T01:56:39.473Z,13.50
2022-12-19T01:59:12.793Z,8.35
2022-12-19T02:01:51.172Z,13.82
2022-12-19T02:04:19.184Z,6.93
2022-12-19T02:06:47.339Z,10.00
2022-12-19T02:09:14.550Z,10.88
2022-12-19T02:11:41.152Z,12.85
2022-12-19T02:14:07.810Z,8.02
2022-12-19T02:17:00.211Z,8.13
2022-12-19T02:19:47.385Z,12.80
2022-12-19T02:22:19.196Z,12.65
2022-12-19T02:24:57.809Z,9.75
2022-12-19T02:27:42.335Z,7.28
2022-12-19T02:30:11.458Z,10.52
2022-12-19T02:32:47.229Z,7.40
2022-12-19T02:35:19.545Z,5.78
2022-12-19T02:38:13.214Z,5.70
2022-12-19T02:40:44.194Z,6.78
2022-12-19T02:43:13.731Z,9.63
2022-12-19T02:45:41.586Z,7.30
2022-12-19T02:48:09.383Z,11.90
2022-12-19T02:50:41.160Z,13.25
2022-12-19T02:53:10.792Z,10.48
2022-12-19T02:56:02.248Z,9.68
2022-12-19T02:58:51.713Z,12.80
2022-12-19T03:15:55.359Z,15.38
2022-12-19T03:18:22.032Z,11.63
2022-12-19T03:20:53.232Z,11.45
2022-12-19T03:23:20.273Z,12.90
2022-12-19T03:25:50.304Z,9.10
2022-12-19T03:28:23.771Z,11.88
2022-12-19T03:30:50.749Z,9.77
2022-12-19T03:33:19.188Z,13.45
2022-12-19T03:35:46.801Z,16.60
2022-12-19T03:38:14.806Z,14.55
2022-12-19T03:40:44.320Z,14.10
2022-12-19T03:43:12.719Z,10.95
2022-12-19T03:46:02.891Z,12.27
2022-12-19T03:48:49.994Z,9.20
2022-12-19T03:51:57.873Z,10.98
2022-12-19T03:54:28.509Z,14.38
2022-12-19T03:57:12.055Z,18.73
2022-12-19T03:59:56.352Z,22.38
2022-12-19T04:02:24.064Z,19.38
2022-12-19T04:04:56.857Z,28.65
2022-12-19T04:07:23.987Z,30.83
2022-12-19T04:09:51.554Z,29.85
2022-12-19T04:12:24.233Z,31.33
2022-12-19T04:14:51.668Z,29.88
2022-12-19T04:17:30.910Z,21.38
2022-12-19T04:20:05.070Z,22.05
2022-12-19T04:22:34.719Z,15.40
2022-12-19T04:25:03.079Z,15.40
2022-12-19T04:27:31.922Z,15.23
2022-12-19T04:29:59.501Z,11.60
2022-12-19T04:32:27.791Z,16.52
2022-12-19T04:34:54.410Z,14.68
2022-12-19T04:37:21.285Z,14.98
2022-12-19T04:39:47.910Z,14.65
2022-12-19T04:42:14.478Z,15.55
2022-12-19T04:44:41.156Z,12.95
2022-12-19T04:47:07.886Z,12.50
2022-12-19T04:49:34.694Z,10.90
2022-12-19T04:52:01.301Z,12.65
2022-12-19T04:54:27.846Z,9.82
2022-12-19T04:56:54.740Z,9.77
2022-12-19T04:59:21.290Z,9.57
2022-12-19T05:01:47.973Z,9.48
2022-12-19T05:04:14.625Z,10.98
2022-12-19T05:06:41.362Z,8.38
2022-12-19T05:09:09.931Z,8.45
2022-12-19T05:11:36.587Z,10.18
2022-12-19T05:14:03.587Z,9.18
2022-12-19T05:16:30.293Z,9.32
2022-12-19T05:18:56.958Z,10.35
2022-12-19T05:21:23.843Z,9.32
2022-12-19T05:23:51.381Z,9.70
2022-12-19T05:26:18.013Z,8.32
2022-12-19T05:28:44.620Z,8.43
2022-12-19T05:31:17.018Z,7.03
2022-12-19T05:33:44.114Z,10.35
2022-12-19T05:36:11.958Z,7.80
2022-12-19T05:38:38.808Z,8.45
2022-12-19T05:41:10.790Z,6.65
2022-12-19T05:43:37.559Z,9.52
2022-12-19T05:46:05.396Z,7.00
2022-12-19T05:48:32.098Z,9.63
2022-12-19T05:50:58.667Z,10.10
2022-12-19T05:53:27.523Z,8.73
2022-12-19T05:56:11.868Z,8.05
2022-12-19T05:58:39.258Z,10.38
2022-12-19T06:01:12.332Z,8.65
2022-12-19T06:03:39.028Z,9.82
2022-12-19T06:06:08.640Z,10.35
2022-12-19T06:08:35.302Z,10.68
2022-12-19T06:11:03.731Z,11.65
2022-12-19T06:13:31.135Z,11.35
2022-12-19T06:16:10.297Z,10.65
2022-12-19T06:18:42.901Z,11.43
2022-12-19T06:21:13.345Z,11.93
2022-12-19T06:23:40.381Z,12.80
2022-12-19T06:26:07.957Z,11.68
2022-12-19T06:28:35.673Z,15.13
2022-12-19T06:31:04.371Z,13.43
2022-12-19T06:33:31.912Z,13.30
2022-12-19T06:36:02.872Z,12.77
2022-12-19T06:38:30.099Z,14.48
2022-12-19T06:41:15.108Z,15.93
2022-12-19T06:43:41.716Z,13.27
2022-12-19T06:46:08.583Z,14.43
2022-12-19T06:48:35.633Z,8.68
2022-12-19T06:51:02.505Z,13.43
2022-12-19T06:53:29.630Z,11.73
2022-12-19T06:55:57.875Z,11.35
2022-12-19T06:58:24.795Z,13.68
2022-12-19T07:00:51.589Z,14.73
2022-12-19T07:03:21.847Z,13.18
2022-12-19T07:05:48.695Z,11.90
2022-12-19T07:08:15.308Z,13.52
2022-12-19T07:10:41.991Z,9.88
2022-12-19T07:13:08.624Z,13.52
2022-12-19T07:15:36.286Z,19.85
2022-12-19T07:18:04.449Z,19.52
2022-12-19T07:20:31.937Z,17.00
2022-12-19T07:22:59.209Z,14.07
2022-12-19T07:25:25.795Z,12.93
2022-12-19T07:27:52.539Z,16.48
2022-12-19T07:30:19.215Z,19.67
2022-12-19T07:32:45.848Z,15.90
2022-12-19T07:35:12.447Z,15.52
2022-12-19T07:37:39.062Z,16.40
2022-12-19T07:40:06.532Z,16.52
2022-12-19T07:42:34.103Z,17.65
2022-12-19T07:45:01.499Z,16.90
2022-12-19T07:47:28.208Z,17.75
2022-12-19T07:49:54.879Z,13.63
2022-12-19T07:52:21.523Z,13.07
2022-12-19T07:54:48.068Z,9.30
2022-12-19T07:57:14.691Z,14.90
2022-12-19T07:59:41.297Z,19.67
2022-12-19T08:02:08.210Z,21.10
2022-12-19T08:04:34.981Z,16.17
2022-12-19T08:07:02.484Z,21.88
2022-12-19T08:09:29.262Z,15.18
2022-12-19T08:11:55.974Z,18.15
2022-12-19T08:14:22.601Z,17.10
2022-12-19T08:17:19.421Z,17.45
2022-12-19T08:19:36.090Z,17.73
2022-12-19T08:22:02.732Z,12.40
2022-12-19T08:24:30.921Z,12.18
2022-12-19T08:26:58.908Z,13.77
2022-12-19T08:29:25.591Z,12.77
2022-12-19T08:31:52.263Z,13.25
2022-12-19T08:34:19.011Z,14.10
2022-12-19T08:36:45.599Z,11.32
2022-12-19T08:39:12.160Z,11.27
2022-12-19T08:41:38.762Z,10.25
2022-12-19T08:44:05.499Z,12.52
2022-12-19T08:46:32.213Z,13.05
2022-12-19T08:48:58.909Z,8.93
2022-12-19T08:51:27.099Z,11.90
2022-12-19T08:53:53.700Z,13.43
2022-12-19T08:56:21.813Z,11.35
2022-12-19T08:58:48.827Z,11.30
2022-12-19T09:01:19.337Z,11.35
2022-12-19T09:05:02.099Z,12.68
2022-12-19T09:06:33.434Z,13.05
2022-12-19T09:09:00.600Z,12.95
2022-12-19T09:11:27.593Z,16.17
2022-12-19T09:13:56.489Z,12.65
2022-12-19T09:16:24.864Z,12.98
2022-12-19T09:18:54.206Z,11.88
2022-12-19T09:21:22.590Z,11.27
2022-12-19T09:23:51.073Z,12.35
2022-12-19T09:26:18.290Z,13.98
2022-12-19T09:28:45.845Z,11.70
2022-12-19T09:31:14.942Z,10.88
2022-12-19T09:33:43.890Z,12.90
2022-12-19T09:36:20.240Z,13.63
2022-12-19T09:38:47.360Z,11.88
2022-12-19T09:41:13.910Z,12.38
2022-12-19T09:43:57.251Z,13.38
2022-12-19T09:46:35.010Z,14.20
2022-12-19T09:49:01.886Z,13.10
2022-12-19T09:51:34.823Z,12.50
2022-12-19T09:54:15.262Z,12.25
2022-12-19T09:56:45.769Z,9.90
2022-12-19T09:59:29.510Z,16.98
2022-12-19T10:02:51.865Z,12.65
2022-12-19T10:07:03.422Z,13.73
2022-12-19T10:08:38.070Z,12.75
2022-12-19T10:12:39.853Z,12.20
2022-12-19T10:14:53.241Z,13.88
2022-12-19T10:17:46.011Z,13.25
2022-12-19T10:20:25.672Z,11.93
2022-12-19T10:23:10.770Z,14.32
2022-12-19T10:25:50.821Z,12.55
2022-12-19T10:28:33.106Z,12.57
2022-12-19T10:31:22.072Z,14.55
2022-12-19T10:34:06.850Z,15.70
2022-12-19T10:37:12.848Z,12.38
2022-12-19T10:39:47.236Z,9.60
2022-12-19T10:42:30.705Z,10.65
2022-12-19T10:44:59.255Z,8.90
2022-12-19T10:47:25.904Z,12.40
2022-12-19T10:49:52.484Z,11.45
2022-12-19T10:52:46.563Z,14.20
2022-12-19T10:55:45.675Z,11.45
2022-12-19T10:58:19.462Z,15.68
2022-12-19T11:01:05.410Z,13.48
2022-12-19T11:03:34.115Z,13.25
2022-12-19T11:06:02.748Z,11.23
2022-12-19T11:08:33.521Z,12.68
2022-12-19T11:12:02.658Z,12.18
2022-12-19T11:18:43.493Z,12.05
2022-12-19T11:26:07.195Z,12.32
2022-12-19T11:29:30.357Z,12.65
2022-12-19T11:29:44.648Z,13.48
2022-12-19T11:30:09.921Z,12.23
2022-12-19T11:30:49.021Z,12.25
2022-12-19T11:34:37.242Z,12.27
2022-12-19T11:37:21.359Z,13.93
2022-12-19T11:39:51.705Z,13.75
2022-12-19T11:42:24.796Z,12.27
2022-12-19T11:44:57.668Z,12.95
2022-12-19T11:47:42.502Z,12.25
2022-12-19T11:50:17.020Z,13.40
2022-12-19T11:53:04.889Z,12.70
2022-12-19T11:56:02.735Z,12.07
2022-12-19T11:58:32.827Z,13.15
2022-12-19T12:01:05.533Z,12.85
2022-12-19T12:04:06.385Z,14.32
2022-12-19T12:06:45.492Z,13.30
2022-12-19T12:13:07.325Z,12.98
2022-12-19T12:19:53.845Z,12.15
2022-12-19T12:26:14.123Z,14.07
2022-12-19T12:31:14.249Z,12.85
2022-12-19T12:31:55.328Z,13.63
2022-12-19T12:31:57.030Z,13.82
2022-12-19T12:35:05.928Z,13.68
2022-12-19T12:35:30.673Z,12.85
2022-12-19T12:39:59.675Z,13.48
2022-12-19T12:43:01.390Z,15.48
2022-12-19T12:45:42.067Z,14.18
2022-12-19T12:48:32.391Z,16.30
2022-12-19T12:51:00.569Z,15.40
2022-12-19T12:53:33.334Z,14.00
2022-12-19T12:56:02.421Z,15.13
2022-12-19T12:58:50.963Z,14.88
2022-12-19T13:01:30.417Z,14.32
2022-12-19T13:04:17.412Z,14.60
2022-12-19T13:06:50.260Z,14.95
2022-12-19T13:09:26.598Z,14.48
2022-12-19T13:12:36.680Z,15.30
2022-12-19T13:15:22.206Z,13.65
2022-12-19T13:17:49.435Z,12.80
2022-12-19T13:20:19.249Z,14.48
2022-12-19T13:22:59.125Z,16.52
2022-12-19T13:25:34.997Z,14.25
2022-12-19T13:28:01.687Z,13.43
2022-12-19T13:30:50.116Z,14.82
2022-12-19T13:33:20.165Z,16.02
2022-12-19T13:39:37.057Z,14.30
2022-12-19T13:39:56.171Z,15.93
2022-12-19T13:41:59.621Z,15.73
2022-12-19T13:44:26.615Z,15.73
